createdAt,value
2022-12-22T00:01:41.470Z,3.30
2022-12-22T00:04:18.266Z,2.00
2022-12-22T00:06:44.010Z,4.00
2022-12-22T00:09:06.861Z,6.30
2022-12-22T00:11:35.661Z,2.37
2022-12-22T00:14:00.285Z,2.60
2022-12-22T00:16:25.708Z,5.30
2022-12-22T00:18:50.340Z,3.10
2022-12-22T00:21:16.682Z,5.50
2022-12-22T00:23:40.765Z,3.33
2022-12-22T00:26:02.045Z,2.77
2022-12-22T00:31:05.647Z,3.90
2022-12-22T00:33:29.997Z,4.10
2022-12-22T00:35:52.047Z,2.60
2022-12-22T00:38:25.200Z,2.37
2022-12-22T00:40:47.448Z,4.43
2022-12-22T00:43:12.254Z,3.00
2022-12-22T00:45:37.521Z,3.00
2022-12-22T00:48:02.469Z,3.70
2022-12-22T00:50:24.624Z,2.70
2022-12-22T00:52:47.163Z,2.40
2022-12-22T00:55:12.832Z,6.60
2022-12-22T00:57:36.895Z,5.03
2022-12-22T00:59:59.312Z,3.67
2022-12-22T01:02:22.740Z,2.30
2022-12-22T01:07:19.536Z,2.60
2022-12-22T01:09:42.416Z,3.70
2022-12-22T01:12:08.042Z,1.70
2022-12-22T01:14:30.430Z,1.90
2022-12-22T01:16:50.904Z,1.90
2022-12-22T01:19:11.660Z,2.47
2022-12-22T01:21:39.703Z,4.00
2022-12-22T01:24:01.696Z,2.17
2022-12-22T01:26:22.710Z,3.80
2022-12-22T01:28:44.669Z,3.40
2022-12-22T01:31:05.410Z,2.60
2022-12-22T01:33:27.774Z,1.87
2022-12-22T01:35:50.760Z,2.50
2022-12-22T01:38:12.477Z,1.77
2022-12-22T01:40:36.710Z,2.00
2022-12-22T01:42:57.178Z,4.10
2022-12-22T01:45:24.316Z,2.30
2022-12-22T01:47:50.975Z,2.53
2022-12-22T01:50:11.221Z,4.93
2022-12-22T01:52:34.170Z,2.47
2022-12-22T01:54:54.443Z,5.90
2022-12-22T01:57:15.208Z,4.20
2022-12-22T01:59:35.751Z,2.37
2022-12-22T02:01:58.582Z,1.80
2022-12-22T02:04:19.500Z,1.53
2022-12-22T02:06:45.521Z,1.67
2022-12-22T02:09:13.825Z,1.30
2022-12-22T02:11:43.768Z,2.00
2022-12-22T02:14:13.291Z,2.53
2022-12-22T02:16:39.445Z,1.90
2022-12-22T02:19:04.048Z,1.77
2022-12-22T02:21:25.619Z,1.00
2022-12-22T02:23:59.444Z,1.20
2022-12-22T02:26:31.969Z,2.30
2022-12-22T02:28:53.561Z,1.00
2022-12-22T02:31:14.133Z,1.40
2022-12-22T02:33:34.877Z,3.23
2022-12-22T02:36:00.583Z,0.97
2022-12-22T02:38:29.130Z,1.03
2022-12-22T02:40:54.711Z,0.83
2022-12-22T02:43:24.620Z,0.93
2022-12-22T02:45:51.893Z,0.97
2022-12-22T02:48:20.111Z,1.77
2022-12-22T02:50:47.100Z,1.70
2022-12-22T02:53:08.134Z,0.80
2022-12-22T02:55:29.144Z,2.63
2022-12-22T02:57:49.875Z,0.77
2022-12-22T03:00:11.991Z,0.70
2022-12-22T03:02:33.059Z,2.37
2022-12-22T03:04:54.005Z,0.80
2022-12-22T03:07:14.631Z,1.53
2022-12-22T03:09:35.309Z,0.70
2022-12-22T03:11:56.170Z,0.70
2022-12-22T03:14:16.555Z,0.60
2022-12-22T03:16:38.401Z,0.80
2022-12-22T03:18:59.098Z,0.80
2022-12-22T03:21:19.718Z,0.70
2022-12-22T03:23:39.923Z,0.70
2022-12-22T03:25:52.998Z,0.63
2022-12-22T03:27:55.888Z,0.60
2022-12-22T03:29:58.793Z,1.53
2022-12-22T03:32:03.026Z,2.57
2022-12-22T03:34:05.851Z,0.63
2022-12-22T03:36:09.446Z,0.70
2022-12-22T03:38:12.317Z,0.83
2022-12-22T03:40:15.383Z,1.07
2022-12-22T03:42:44.091Z,0.53
2022-12-22T03:45:04.381Z,0.60
2022-12-22T03:47:08.819Z,2.07
2022-12-22T03:49:11.734Z,5.80
2022-12-22T03:51:14.643Z,0.60
2022-12-22T03:53:17.515Z,0.53
2022-12-22T03:55:20.394Z,0.50
2022-12-22T03:57:23.328Z,1.63
2022-12-22T03:59:26.255Z,1.23
2022-12-22T04:01:29.347Z,0.60
2022-12-22T04:03:33.766Z,0.60
2022-12-22T04:05:36.661Z,0.60
2022-12-22T04:07:39.721Z,1.23
2022-12-22T04:10:02.636Z,0.60
2022-12-22T04:12:24.458Z,1.57
2022-12-22T04:14:33.484Z,0.60
2022-12-22T04:16:37.371Z,2.73
2022-12-22T04:18:41.612Z,0.60
2022-12-22T04:20:44.418Z,0.60
2022-12-22T04:22:47.594Z,1.03
2022-12-22T04:24:50.411Z,4.93
2022-12-22T04:26:53.537Z,0.93
2022-12-22T04:28:56.533Z,0.70
2022-12-22T04:30:59.437Z,0.97
2022-12-22T04:33:02.213Z,0.60
2022-12-22T04:35:08.094Z,0.60
2022-12-22T04:37:17.157Z,2.40
2022-12-22T04:39:20.684Z,3.73
2022-12-22T04:41:23.597Z,0.60
2022-12-22T04:43:26.446Z,0.93
2022-12-22T04:45:29.363Z,0.80
2022-12-22T04:47:32.339Z,3.00
2022-12-22T04:49:35.221Z,0.90
2022-12-22T04:51:39.467Z,2.60
2022-12-22T04:53:42.325Z,0.73
2022-12-22T04:55:46.972Z,1.73
2022-12-22T04:57:49.801Z,0.80
2022-12-22T04:59:52.991Z,0.50
2022-12-22T05:01:56.002Z,0.67
2022-12-22T05:03:58.958Z,4.77
2022-12-22T05:06:01.862Z,0.60
2022-12-22T05:08:07.216Z,0.63
2022-12-22T05:10:11.735Z,0.60
2022-12-22T05:12:31.996Z,1.70
2022-12-22T05:14:34.799Z,0.90
2022-12-22T05:16:37.691Z,0.77
2022-12-22T05:18:41.654Z,1.97
2022-12-22T05:20:44.498Z,1.07
2022-12-22T05:22:47.699Z,1.13
2022-12-22T05:24:52.097Z,1.37
2022-12-22T05:26:55.126Z,0.80
2022-12-22T05:28:57.957Z,0.60
2022-12-22T05:31:05.170Z,0.83
2022-12-22T05:33:08.114Z,2.50
2022-12-22T05:35:13.307Z,0.70
2022-12-22T05:37:16.206Z,2.33
2022-12-22T05:39:19.527Z,4.73
2022-12-22T05:41:23.812Z,1.77
2022-12-22T05:43:26.761Z,3.57
2022-12-22T05:45:29.581Z,0.83
2022-12-22T05:47:32.904Z,2.57
2022-12-22T05:49:35.787Z,2.00
2022-12-22T05:51:38.685Z,1.13
2022-12-22T05:53:42.098Z,0.83
2022-12-22T05:55:44.955Z,1.10
2022-12-22T05:57:49.231Z,1.10
2022-12-22T05:59:52.262Z,0.80
2022-12-22T06:01:55.156Z,0.73
2022-12-22T06:04:00.683Z,1.43
2022-12-22T06:06:04.106Z,0.80
2022-12-22T06:08:07.044Z,0.80
2022-12-22T06:10:12.646Z,2.33
2022-12-22T06:12:15.743Z,0.83
2022-12-22T06:14:19.974Z,2.13
2022-12-22T06:16:24.925Z,2.53
2022-12-22T06:18:28.354Z,4.30
2022-12-22T06:20:31.326Z,0.80
2022-12-22T06:22:34.741Z,3.30
2022-12-22T06:24:37.985Z,4.83
2022-12-22T06:26:40.797Z,2.30
2022-12-22T06:28:46.621Z,1.00
2022-12-22T06:30:50.999Z,1.40
2022-12-22T06:32:53.899Z,3.77
2022-12-22T06:34:56.846Z,8.17
2022-12-22T06:36:59.812Z,2.30
2022-12-22T06:39:02.754Z,2.30
2022-12-22T06:41:05.900Z,9.93
2022-12-22T06:43:09.869Z,4.47
2022-12-22T06:45:13.241Z,3.00
2022-12-22T06:47:17.813Z,6.03
2022-12-22T06:49:20.817Z,4.33
2022-12-22T06:51:23.740Z,5.33
2022-12-22T06:53:26.647Z,6.47
2022-12-22T06:55:29.537Z,7.27
2022-12-22T06:57:32.462Z,4.13
2022-12-22T06:59:35.749Z,6.90
2022-12-22T07:01:38.739Z,9.50
2022-12-22T07:03:52.605Z,3.67
2022-12-22T07:05:55.692Z,4.67
2022-12-22T07:08:05.962Z,4.90
2022-12-22T07:10:12.196Z,6.77
2022-12-22T07:12:15.277Z,10.47
2022-12-22T07:14:20.610Z,2.87
2022-12-22T07:16:25.633Z,3.10
2022-12-22T07:18:30.842Z,2.93
2022-12-22T07:20:35.633Z,13.30
2022-12-22T07:22:38.555Z,4.40
2022-12-22T07:24:41.810Z,3.10
2022-12-22T07:26:45.113Z,2.97
2022-12-22T07:28:50.235Z,2.53
2022-12-22T07:30:54.971Z,3.77
2022-12-22T07:33:01.562Z,8.50
2022-12-22T07:35:05.837Z,2.90
2022-12-22T07:37:10.982Z,3.13
2022-12-22T07:39:14.310Z,5.53
2022-12-22T07:41:38.582Z,4.53
2022-12-22T07:43:45.144Z,6.57
2022-12-22T07:45:48.032Z,6.03
2022-12-22T07:47:51.159Z,2.83
2022-12-22T07:50:14.346Z,4.97
2022-12-22T07:52:21.472Z,5.97
2022-12-22T07:54:24.719Z,8.27
2022-12-22T07:56:27.704Z,4.53
2022-12-22T07:58:30.663Z,7.63
2022-12-22T08:00:33.480Z,10.93
2022-12-22T08:02:39.156Z,8.57
2022-12-22T08:04:42.500Z,9.63
2022-12-22T08:06:45.478Z,14.50
2022-12-22T08:08:49.788Z,10.97
2022-12-22T08:10:52.686Z,12.10
2022-12-22T08:12:55.696Z,15.60
2022-12-22T08:15:00.600Z,10.87
2022-12-22T08:17:03.509Z,19.00
2022-12-22T08:19:06.477Z,15.40
2022-12-22T08:21:10.467Z,15.07
2022-12-22T08:23:13.616Z,21.70
2022-12-22T08:25:18.423Z,18.60
2022-12-22T08:27:26.325Z,21.03
2022-12-22T08:29:32.699Z,22.80
2022-12-22T08:31:35.944Z,29.50
2022-12-22T08:33:40.043Z,23.90
2022-12-22T08:35:47.113Z,23.97
2022-12-22T08:37:50.136Z,26.73
2022-12-22T08:39:56.008Z,27.77
2022-12-22T08:42:02.873Z,30.63
2022-12-22T08:44:06.218Z,36.00
2022-12-22T08:46:10.048Z,36.80
2022-12-22T08:48:14.089Z,39.97
2022-12-22T08:50:17.347Z,34.53
2022-12-22T08:52:24.237Z,31.27
2022-12-22T08:54:28.581Z,27.83
2022-12-22T08:56:32.117Z,31.03
2022-12-22T08:58:36.398Z,20.50
2022-12-22T09:00:40.232Z,23.63
2022-12-22T09:02:43.259Z,19.50
2022-12-22T09:04:46.399Z,25.30
2022-12-22T09:06:49.435Z,26.03
2022-12-22T09:08:55.217Z,34.83
2022-12-22T09:10:58.053Z,28.00
2022-12-22T09:13:01.060Z,25.67
2022-12-22T09:15:07.127Z,31.77
2022-12-22T09:17:10.214Z,24.53
2022-12-22T09:19:13.156Z,30.80
2022-12-22T09:21:21.985Z,27.73
2022-12-22T09:23:24.997Z,29.77
2022-12-22T09:25:28.050Z,28.40
2022-12-22T09:27:31.295Z,26.70
2022-12-22T09:29:34.257Z,38.87
2022-12-22T09:31:41.597Z,26.67
2022-12-22T09:33:44.648Z,32.90
2022-12-22T09:35:47.545Z,31.73
2022-12-22T09:37:51.930Z,28.80
2022-12-22T09:39:54.801Z,27.80
2022-12-22T09:41:59.214Z,22.20
2022-12-22T09:44:04.641Z,25.57
2022-12-22T09:46:11.960Z,24.40
2022-12-22T09:48:16.211Z,26.73
2022-12-22T09:50:21.364Z,22.93
2022-12-22T09:52:28.116Z,24.27
2022-12-22T09:54:31.932Z,22.77
2022-12-22T09:56:34.878Z,24.57
2022-12-22T09:58:37.945Z,21.87
2022-12-22T10:00:41.234Z,16.17
2022-12-22T10:02:52.529Z,19.13
2022-12-22T10:05:08.199Z,20.10
2022-12-22T10:07:22.932Z,22.60
2022-12-22T10:09:48.870Z,22.87
2022-12-22T10:11:52.192Z,19.90
2022-12-22T10:13:55.094Z,25.83
2022-12-22T10:15:58.062Z,27.17
2022-12-22T10:18:11.629Z,31.23
2022-12-22T10:20:46.575Z,25.87
2022-12-22T10:22:56.905Z,27.33
2022-12-22T10:25:02.537Z,30.93
2022-12-22T10:27:08.241Z,22.37
2022-12-22T10:29:12.966Z,20.10
2022-12-22T10:31:21.688Z,22.50
2022-12-22T10:33:24.747Z,26.73
2022-12-22T10:35:40.625Z,21.57
2022-12-22T10:37:43.997Z,24.60
2022-12-22T10:39:47.678Z,24.90
2022-12-22T10:41:52.140Z,23.17
2022-12-22T10:43:56.872Z,19.00
2022-12-22T10:46:00.776Z,20.10
2022-12-22T10:48:04.364Z,22.17
2022-12-22T10:50:09.139Z,19.20
2022-12-22T10:52:16.327Z,23.50
2022-12-22T10:54:33.652Z,28.37
2022-12-22T11:00:25.487Z,23.93
2022-12-22T11:02:31.616Z,25.73
2022-12-22T11:04:34.689Z,19.20
2022-12-22T11:06:37.703Z,30.27
2022-12-22T11:08:49.178Z,25.20
2022-12-22T11:10:56.677Z,25.27
2022-12-22T11:13:12.816Z,27.90
2022-12-22T11:15:24.907Z,25.07
2022-12-22T11:17:32.954Z,25.80
2022-12-22T11:19:49.406Z,22.27
2022-12-22T11:21:58.649Z,27.03
2022-12-22T11:24:09.566Z,24.37
2022-12-22T11:26:16.508Z,22.37
2022-12-22T11:28:36.086Z,24.30
2022-12-22T11:30:48.402Z,22.77
2022-12-22T11:33:01.722Z,24.53
2022-12-22T11:35:12.210Z,25.70
2022-12-22T11:37:27.659Z,24.57
2022-12-22T11:39:40.596Z,24.13
2022-12-22T11:41:51.911Z,26.60
2022-12-22T11:44:07.747Z,22.50
2022-12-22T11:46:20.126Z,31.70
2022-12-22T11:48:38.033Z,23.80
2022-12-22T11:50:58.201Z,25.57
2022-12-22T11:53:24.106Z,22.50
2022-12-22T11:55:32.986Z,25.30
2022-12-22T11:57:41.040Z,22.60
2022-12-22T11:59:50.593Z,21.73
2022-12-22T12:02:06.121Z,23.40
2022-12-22T12:04:21.251Z,22.10
2022-12-22T12:06:43.674Z,20.23
2022-12-22T12:09:00.070Z,17.93
2022-12-22T12:11:18.155Z,24.30
2022-12-22T12:13:36.555Z,22.37
2022-12-22T12:15:44.689Z,29.47
2022-12-22T12:18:17.110Z,21.90
2022-12-22T12:20:33.077Z,19.00
2022-12-22T12:22:46.622Z,20.70
2022-12-22T12:25:00.868Z,19.00
2022-12-22T12:27:11.302Z,19.37
2022-12-22T12:29:21.155Z,21.50
2022-12-22T12:31:27.962Z,20.70
2022-12-22T12:33:44.914Z,20.70
2022-12-22T12:35:53.260Z,20.80
2022-12-22T12:37:59.260Z,24.90
2022-12-22T12:40:10.074Z,19.10
2022-12-22T12:42:23.773Z,19.20
2022-12-22T12:44:30.388Z,19.43
2022-12-22T12:46:53.417Z,18.87
2022-12-22T12:48:57.824Z,24.83
2022-12-22T12:51:00.790Z,20.00
2022-12-22T12:53:08.991Z,17.90
2022-12-22T12:55:31.385Z,19.97
2022-12-22T12:57:47.923Z,16.53
2022-12-22T12:59:52.653Z,15.07
2022-12-22T13:02:01.203Z,17.50
2022-12-22T13:04:05.670Z,23.13
2022-12-22T13:06:10.747Z,15.73
2022-12-22T13:08:22.399Z,17.67
2022-12-22T13:10:27.625Z,16.30
2022-12-22T13:12:41.880Z,19.17
2022-12-22T13:14:57.516Z,13.20
2022-12-22T13:17:34.046Z,14.83
2022-12-22T13:19:37.088Z,18.30
2022-12-22T13:21:53.083Z,14.97
2022-12-22T13:24:24.202Z,19.07
2022-12-22T13:26:29.656Z,14.13
2022-12-22T13:28:34.165Z,17.07
2022-12-22T13:30:37.512Z,13.43
2022-12-22T13:32:49.210Z,12.97
2022-12-22T13:35:29.657Z,13.07
2022-12-22T13:37:23.235Z,17.27
2022-12-22T13:39:27.501Z,12.47
2022-12-22T13:41:32.193Z,20.13
2022-12-22T13:43:39.588Z,21.30
2022-12-22T13:45:45.165Z,15.20
2022-12-22T13:47:49.616Z,17.00
2022-12-22T13:50:08.425Z,19.10
2022-12-22T13:52:15.088Z,14.50
2022-12-22T13:54:19.220Z,14.87
2022-12-22T13:56:25.376Z,16.93
2022-12-22T13:58:33.283Z,16.57
2022-12-22T14:00:39.212Z,16.80
2022-12-22T14:02:42.669Z,16.47
2022-12-22T14:05:04.432Z,15.63
2022-12-22T14:07:12.750Z,18.90
2022-12-22T14:09:18.208Z,21.93
2022-12-22T14:11:21.554Z,15.80
2022-12-22T14:13:36.957Z,17.53
2022-12-22T14:15:41.697Z,14.37
2022-12-22T14:17:52.663Z,14.07
2022-12-22T14:19:57.688Z,13.10
2022-12-22T14:22:04.936Z,15.63
2022-12-22T14:24:10.685Z,16.30
2022-12-22T14:26:19.315Z,12.40
2022-12-22T14:28:26.299Z,13.67
2022-12-22T14:30:36.342Z,14.40
2022-12-22T14:32:49.142Z,13.20
2022-12-22T14:34:56.126Z,12.20
2022-12-22T14:36:59.814Z,14.60
2022-12-22T14:39:10.920Z,9.40
2022-12-22T14:41:34.669Z,12.03
2022-12-22T14:43:38.098Z,18.70
2022-12-22T14:45:41.160Z,15.53
2022-12-22T14:47:45.566Z,14.47
2022-12-22T14:49:51.242Z,15.40
2022-12-22T14:52:00.955Z,14.47
2022-12-22T14:54:04.530Z,133.40
